sensor_id;sensor_type;location;lat;lon;timestamp;pressure;altitude;pressure_sealevel;temperature;humidity
46718;BME280;32448;44.960;-0.698;2023-04-25T00:02:18;101350.19;;;11.44;100.00
46718;BME280;32448;44.960;-0.698;2023-04-25T00:04:46;101353.66;;;11.43;100.00
46718;BME280;32448;44.960;-0.698;2023-04-25T00:07:16;101356.28;;;11.43;100.00
46718;BME280;32448;44.960;-0.698;2023-04-25T00:09:44;101349.31;;;11.43;100.00
46718;BME280;32448;44.960;-0.698;2023-04-25T00:12:11;101347.50;;;11.41;100.00
46718;BME280;32448;44.960;-0.698;2023-04-25T00:14:39;101335.22;;;11.37;100.00
46718;BME280;32448;44.960;-0.698;2023-04-25T00:17:06;101332.63;;;11.40;100.00
46718;BME280;32448;44.960;-0.698;2023-04-25T00:19:33;101331.78;;;11.41;100.00
46718;BME280;32448;44.960;-0.698;2023-04-25T00:22:01;101335.22;;;11.38;100.00
46718;BME280;32448;44.960;-0.698;2023-04-25T00:24:29;101332.41;;;11.29;100.00
46718;BME280;32448;44.960;-0.698;2023-04-25T00:26:56;101334.16;;;11.30;100.00
46718;BME280;32448;44.960;-0.698;2023-04-25T00:29:23;101339.28;;;11.24;100.00
46718;BME280;32448;44.960;-0.698;2023-04-25T00:31:50;101336.66;;;11.24;100.00
46718;BME280;32448;44.960;-0.698;2023-04-25T00:34:18;101324.47;;;11.24;100.00
46718;BME280;32448;44.960;-0.698;2023-04-25T00:36:46;101323.56;;;11.24;100.00
46718;BME280;32448;44.960;-0.698;2023-04-25T00:39:13;101331.38;;;11.22;100.00
46718;BME280;32448;44.960;-0.698;2023-04-25T00:41:40;101324.50;;;11.26;100.00
46718;BME280;32448;44.960;-0.698;2023-04-25T00:44:08;101313.19;;;11.28;100.00
46718;BME280;32448;44.960;-0.698;2023-04-25T00:46:37;101317.66;;;11.32;100.00
46718;BME280;32448;44.960;-0.698;2023-04-25T00:49:05;101300.97;;;11.27;100.00
46718;BME280;32448;44.960;-0.698;2023-04-25T00:51:32;101300.16;;;11.30;100.00
46718;BME280;32448;44.960;-0.698;2023-04-25T00:53:59;101294.06;;;11.31;100.00
46718;BME280;32448;44.960;-0.698;2023-04-25T00:56:26;101293.19;;;11.30;100.00
46718;BME280;32448;44.960;-0.698;2023-04-25T00:58:54;101300.22;;;11.33;100.00
46718;BME280;32448;44.960;-0.698;2023-04-25T01:01:24;101308.13;;;11.35;100.00
46718;BME280;32448;44.960;-0.698;2023-04-25T01:03:51;101302.88;;;11.35;100.00
46718;BME280;32448;44.960;-0.698;2023-04-25T01:06:21;101290.69;;;11.35;100.00
46718;BME280;32448;44.960;-0.698;2023-04-25T01:08:49;101294.06;;;11.31;100.00
46718;BME280;32448;44.960;-0.698;2023-04-25T01:11:16;101292.31;;;11.30;100.00
46718;BME280;32448;44.960;-0.698;2023-04-25T01:13:43;101293.03;;;11.23;100.00
46718;BME280;32448;44.960;-0.698;2023-04-25T01:16:10;101298.34;;;11.26;100.00
46718;BME280;32448;44.960;-0.698;2023-04-25T01:18:40;101294.09;;;11.32;100.00
46718;BME280;32448;44.960;-0.698;2023-04-25T01:21:09;101298.34;;;11.26;100.00
46718;BME280;32448;44.960;-0.698;2023-04-25T01:23:38;101298.25;;;11.23;100.00
46718;BME280;32448;44.960;-0.698;2023-04-25T01:26:06;101294.72;;;11.21;100.00
46718;BME280;32448;44.960;-0.698;2023-04-25T01:28:35;101289.53;;;11.22;100.00
46718;BME280;32448;44.960;-0.698;2023-04-25T01:31:03;101293.84;;;11.20;100.00
46718;BME280;32448;44.960;-0.698;2023-04-25T01:33:30;101292.03;;;11.18;100.00
46718;BME280;32448;44.960;-0.698;2023-04-25T01:35:58;101287.75;;;11.21;100.00
46718;BME280;32448;44.960;-0.698;2023-04-25T01:38:25;101279.13;;;11.25;100.00
46718;BME280;32448;44.960;-0.698;2023-04-25T01:40:53;101283.38;;;11.20;100.00
46718;BME280;32448;44.960;-0.698;2023-04-25T01:43:21;101277.28;;;11.21;100.00
46718;BME280;32448;44.960;-0.698;2023-04-25T01:45:49;101274.63;;;11.20;100.00
46718;BME280;32448;44.960;-0.698;2023-04-25T01:48:16;101275.47;;;11.19;100.00
46718;BME280;32448;44.960;-0.698;2023-04-25T01:50:45;101275.47;;;11.19;100.00
46718;BME280;32448;44.960;-0.698;2023-04-25T01:53:12;101264.94;;;11.14;100.00
46718;BME280;32448;44.960;-0.698;2023-04-25T01:55:42;101279.78;;;11.15;100.00
46718;BME280;32448;44.960;-0.698;2023-04-25T01:58:13;101281.56;;;11.18;100.00
46718;BME280;32448;44.960;-0.698;2023-04-25T02:01:01;101278.16;;;11.22;100.00
46718;BME280;32448;44.960;-0.698;2023-04-25T02:03:36;101280.88;;;11.25;100.00
46718;BME280;32448;44.960;-0.698;2023-04-25T02:06:08;101277.41;;;11.26;100.00
46718;BME280;32448;44.960;-0.698;2023-04-25T02:08:40;101266.91;;;11.24;100.00
46718;BME280;32448;44.960;-0.698;2023-04-25T02:11:07;101264.31;;;11.27;100.00
46718;BME280;32448;44.960;-0.698;2023-04-25T02:13:40;101269.56;;;11.26;100.00
46718;BME280;32448;44.960;-0.698;2023-04-25T02:16:25;101266.06;;;11.25;100.00
46718;BME280;32448;44.960;-0.698;2023-04-25T02:18:53;101261.72;;;11.27;100.00
46718;BME280;32448;44.960;-0.698;2023-04-25T02:21:20;101246.78;;;11.22;100.00
46718;BME280;32448;44.960;-0.698;2023-04-25T02:23:47;101250.16;;;11.18;100.00
46718;BME280;32448;44.960;-0.698;2023-04-25T02:26:16;101244.97;;;11.19;100.00
46718;BME280;32448;44.960;-0.698;2023-04-25T02:28:43;101256.47;;;11.26;100.00
46718;BME280;32448;44.960;-0.698;2023-04-25T02:31:10;101263.44;;;11.27;100.00
46718;BME280;32448;44.960;-0.698;2023-04-25T02:33:37;101269.63;;;11.30;100.00
46718;BME280;32448;44.960;-0.698;2023-04-25T02:36:05;101275.78;;;11.32;100.00
46718;BME280;32448;44.960;-0.698;2023-04-25T02:38:32;101273.16;;;11.32;100.00
46718;BME280;32448;44.960;-0.698;2023-04-25T02:40:59;101274.06;;;11.33;100.00
46718;BME280;32448;44.960;-0.698;2023-04-25T02:43:26;101270.63;;;11.36;100.00
46718;BME280;32448;44.960;-0.698;2023-04-25T02:45:53;101277.56;;;11.34;100.00
46718;BME280;32448;44.960;-0.698;2023-04-25T02:48:20;101281.06;;;11.34;100.00
46718;BME280;32448;44.960;-0.698;2023-04-25T02:50:47;101271.47;;;11.35;100.00
46718;BME280;32448;44.960;-0.698;2023-04-25T02:53:14;101268.00;;;11.36;100.00
46718;BME280;32448;44.960;-0.698;2023-04-25T02:55:46;101260.09;;;11.32;100.00
46718;BME280;32448;44.960;-0.698;2023-04-25T02:58:13;101264.41;;;11.30;100.00
46718;BME280;32448;44.960;-0.698;2023-04-25T03:00:47;101269.56;;;11.26;100.00
46718;BME280;32448;44.960;-0.698;2023-04-25T03:03:15;101274.72;;;11.23;100.00
46718;BME280;32448;44.960;-0.698;2023-04-25T03:05:45;101269.56;;;11.26;100.00
46718;BME280;32448;44.960;-0.698;2023-04-25T03:08:15;101264.31;;;11.27;100.00
46718;BME280;32448;44.960;-0.698;2023-04-25T03:10:43;101260.81;;;11.27;100.00
46718;BME280;32448;44.960;-0.698;2023-04-25T03:13:10;101266.94;;;11.27;100.00
46718;BME280;32448;44.960;-0.698;2023-04-25T03:15:40;101270.44;;;11.28;100.00
46718;BME280;32448;44.960;-0.698;2023-04-25T03:18:07;101266.06;;;11.25;100.00
46718;BME280;32448;44.960;-0.698;2023-04-25T03:20:34;101264.31;;;11.26;100.00
46718;BME280;32448;44.960;-0.698;2023-04-25T03:23:02;101263.47;;;11.28;100.00
46718;BME280;32448;44.960;-0.698;2023-04-25T03:25:29;101276.53;;;11.27;100.00
46718;BME280;32448;44.960;-0.698;2023-04-25T03:27:56;101266.13;;;11.30;100.00
46718;BME280;32448;44.960;-0.698;2023-04-25T03:30:23;101266.09;;;11.28;100.00
46718;BME280;32448;44.960;-0.698;2023-04-25T03:32:50;101259.13;;;11.29;100.00
46718;BME280;32448;44.960;-0.698;2023-04-25T03:35:19;101255.69;;;11.31;100.00
46718;BME280;32448;44.960;-0.698;2023-04-25T03:37:47;101264.47;;;11.34;100.00
46718;BME280;32448;44.960;-0.698;2023-04-25T03:40:24;101260.06;;;11.31;100.00
46718;BME280;32448;44.960;-0.698;2023-04-25T03:43:10;101263.59;;;11.33;100.00
46718;BME280;32448;44.960;-0.698;2023-04-25T03:45:42;101272.31;;;11.34;100.00
46718;BME280;32448;44.960;-0.698;2023-04-25T03:48:09;101273.22;;;11.34;100.00
46718;BME280;32448;44.960;-0.698;2023-04-25T03:50:37;101260.84;;;11.28;100.00
46718;BME280;32448;44.960;-0.698;2023-04-25T03:53:04;101262.66;;;11.31;100.00
46718;BME280;32448;44.960;-0.698;2023-04-25T03:55:47;101256.50;;;11.29;100.00
46718;BME280;32448;44.960;-0.698;2023-04-25T03:58:14;101261.75;;;11.29;100.00
46718;BME280;32448;44.960;-0.698;2023-04-25T04:00:42;101271.44;;;11.33;100.00
46718;BME280;32448;44.960;-0.698;2023-04-25T04:03:10;101262.75;;;11.34;100.00
46718;BME280;32448;44.960;-0.698;2023-04-25T04:05:42;101255.59;;;11.27;100.00
46718;BME280;32448;44.960;-0.698;2023-04-25T04:08:10;101262.59;;;11.26;100.00
46718;BME280;32448;44.960;-0.698;2023-04-25T04:10:38;101280.03;;;11.27;100.00
46718;BME280;32448;44.960;-0.698;2023-04-25T04:13:06;101280.91;;;11.26;100.00
46718;BME280;32448;44.960;-0.698;2023-04-25T04:15:33;101291.44;;;11.31;100.00
46718;BME280;32448;44.960;-0.698;2023-04-25T04:18:03;101294.88;;;11.28;100.00
46718;BME280;32448;44.960;-0.698;2023-04-25T04:20:42;101295.00;;;11.33;100.00
46718;BME280;32448;44.960;-0.698;2023-04-25T04:23:11;101287.91;;;11.29;100.00
46718;BME280;32448;44.960;-0.698;2023-04-25T04:25:43;101290.56;;;11.30;100.00
46718;BME280;32448;44.960;-0.698;2023-04-25T04:28:39;101296.59;;;11.26;100.00
46718;BME280;32448;44.960;-0.698;2023-04-25T04:31:17;101287.94;;;11.30;100.00
46718;BME280;32448;44.960;-0.698;2023-04-25T04:33:46;101279.31;;;11.35;100.00
46718;BME280;32448;44.960;-0.698;2023-04-25T04:36:15;101280.19;;;11.34;100.00
46718;BME280;32448;44.960;-0.698;2023-04-25T04:38:42;101267.06;;;11.32;100.00
46718;BME280;32448;44.960;-0.698;2023-04-25T04:41:18;101269.56;;;11.27;100.00
46718;BME280;32448;44.960;-0.698;2023-04-25T04:43:50;101280.09;;;11.30;100.00
46718;BME280;32448;44.960;-0.698;2023-04-25T04:46:35;101266.25;;;11.35;100.00
46718;BME280;32448;44.960;-0.698;2023-04-25T04:49:32;101266.94;;;11.27;100.00
46718;BME280;32448;44.960;-0.698;2023-04-25T04:52:19;101273.06;;;11.28;100.00
46718;BME280;32448;44.960;-0.698;2023-04-25T04:55:03;101269.50;;;11.24;100.00
46718;BME280;32448;44.960;-0.698;2023-04-25T04:57:39;101269.56;;;11.26;100.00
46718;BME280;32448;44.960;-0.698;2023-04-25T05:00:27;101273.06;;;11.28;100.00
46718;BME280;32448;44.960;-0.698;2023-04-25T05:03:22;101274.78;;;11.27;100.00
46718;BME280;32448;44.960;-0.698;2023-04-25T05:06:01;101280.81;;;11.23;100.00
46718;BME280;32448;44.960;-0.698;2023-04-25T05:08:36;101281.78;;;11.28;100.00
46718;BME280;32448;44.960;-0.698;2023-04-25T05:11:33;101282.63;;;11.27;100.00
46718;BME280;32448;44.960;-0.698;2023-04-25T05:14:12;101285.25;;;11.26;100.00
46718;BME280;32448;44.960;-0.698;2023-04-25T05:16:42;101302.69;;;11.25;100.00
46718;BME280;32448;44.960;-0.698;2023-04-25T05:19:19;101307.06;;;11.26;100.00
46718;BME280;32448;44.960;-0.698;2023-04-25T05:22:00;101307.00;;;11.23;100.00
46718;BME280;32448;44.960;-0.698;2023-04-25T05:24:47;101312.19;;;11.22;100.00
46718;BME280;32448;44.960;-0.698;2023-04-25T05:27:38;101310.47;;;11.22;100.00
46718;BME280;32448;44.960;-0.698;2023-04-25T05:30:24;101314.75;;;11.20;100.00
46718;BME280;32448;44.960;-0.698;2023-04-25T05:33:04;101323.50;;;11.21;100.00
46718;BME280;32448;44.960;-0.698;2023-04-25T05:35:31;101321.72;;;11.20;100.00
46718;BME280;32448;44.960;-0.698;2023-04-25T05:37:59;101329.50;;;11.17;100.00
46718;BME280;32448;44.960;-0.698;2023-04-25T05:40:55;101332.28;;;11.23;100.00
46718;BME280;32448;44.960;-0.698;2023-04-25T05:43:51;101321.00;;;11.25;100.00
46718;BME280;32448;44.960;-0.698;2023-04-25T05:46:34;101321.00;;;11.27;100.00
46718;BME280;32448;44.960;-0.698;2023-04-25T05:49:20;101309.69;;;11.26;100.00
46718;BME280;32448;44.960;-0.698;2023-04-25T05:52:23;101314.03;;;11.26;100.00
46718;BME280;32448;44.960;-0.698;2023-04-25T05:55:08;101309.78;;;11.31;100.00
46718;BME280;32448;44.960;-0.698;2023-04-25T05:57:36;101301.91;;;11.31;100.00
46718;BME280;32448;44.960;-0.698;2023-04-25T06:00:05;101303.66;;;11.30;100.00
46718;BME280;32448;44.960;-0.698;2023-04-25T06:02:43;101307.16;;;11.31;100.00
46718;BME280;32448;44.960;-0.698;2023-04-25T06:05:13;101313.22;;;11.30;100.00
46718;BME280;32448;44.960;-0.698;2023-04-25T06:07:47;101320.31;;;11.34;100.00
46718;BME280;32448;44.960;-0.698;2023-04-25T06:10:14;101319.41;;;11.32;100.00
46718;BME280;32448;44.960;-0.698;2023-04-25T06:12:41;101317.69;;;11.34;100.00
46718;BME280;32448;44.960;-0.698;2023-04-25T06:15:09;101314.28;;;11.37;100.00
46718;BME280;32448;44.960;-0.698;2023-04-25T06:17:53;101318.75;;;11.42;100.00
46718;BME280;32448;44.960;-0.698;2023-04-25T06:20:24;101315.31;;;11.45;100.00
46718;BME280;32448;44.960;-0.698;2023-04-25T06:22:54;101330.22;;;11.47;100.00
46718;BME280;32448;44.960;-0.698;2023-04-25T06:25:32;101338.06;;;11.49;100.00
46718;BME280;32448;44.960;-0.698;2023-04-25T06:27:59;101339.03;;;11.52;100.00
46718;BME280;32448;44.960;-0.698;2023-04-25T06:30:26;101347.84;;;11.56;100.00
46718;BME280;32448;44.960;-0.698;2023-04-25T06:32:59;101347.91;;;11.57;100.00
46718;BME280;32448;44.960;-0.698;2023-04-25T06:35:28;101341.81;;;11.58;100.00
46718;BME280;32448;44.960;-0.698;2023-04-25T06:37:55;101344.38;;;11.57;100.00
46718;BME280;32448;44.960;-0.698;2023-04-25T06:40:25;101363.88;;;11.70;100.00
46718;BME280;32448;44.960;-0.698;2023-04-25T06:42:52;101367.38;;;11.70;100.00
46718;BME280;32448;44.960;-0.698;2023-04-25T06:45:32;101381.41;;;11.74;100.00
46718;BME280;32448;44.960;-0.698;2023-04-25T06:47:59;101381.41;;;11.74;100.00
46718;BME280;32448;44.960;-0.698;2023-04-25T06:50:27;101369.13;;;11.70;100.00
46718;BME280;32448;44.960;-0.698;2023-04-25T06:52:54;101384.13;;;11.77;100.00
46718;BME280;32448;44.960;-0.698;2023-04-25T06:55:22;101385.06;;;11.79;100.00
46718;BME280;32448;44.960;-0.698;2023-04-25T06:58:06;101378.09;;;11.79;100.00
46718;BME280;32448;44.960;-0.698;2023-04-25T07:00:51;101385.13;;;11.82;100.00
46718;BME280;32448;44.960;-0.698;2023-04-25T07:03:21;101379.94;;;11.85;100.00
46718;BME280;32448;44.960;-0.698;2023-04-25T07:05:49;101379.97;;;11.86;100.00
46718;BME280;32448;44.960;-0.698;2023-04-25T07:08:17;101382.59;;;11.86;100.00
46718;BME280;32448;44.960;-0.698;2023-04-25T07:10:44;101380.09;;;11.91;100.00
46718;BME280;32448;44.960;-0.698;2023-04-25T07:13:15;101373.09;;;11.91;100.00
46718;BME280;32448;44.960;-0.698;2023-04-25T07:15:43;101364.50;;;11.98;100.00
46718;BME280;32448;44.960;-0.698;2023-04-25T07:18:11;101374.97;;;11.97;100.00
46718;BME280;32448;44.960;-0.698;2023-04-25T07:20:38;101364.50;;;11.98;100.00
46718;BME280;32448;44.960;-0.698;2023-04-25T07:23:05;101368.97;;;12.02;100.00
46718;BME280;32448;44.960;-0.698;2023-04-25T07:25:33;101383.00;;;12.06;100.00
46718;BME280;32448;44.960;-0.698;2023-04-25T07:28:00;101390.91;;;12.08;100.00
46718;BME280;32448;44.960;-0.698;2023-04-25T07:30:27;101393.56;;;12.09;100.00
46718;BME280;32448;44.960;-0.698;2023-04-25T07:32:54;101387.56;;;12.16;100.00
46718;BME280;32448;44.960;-0.698;2023-04-25T07:35:22;101395.47;;;12.18;100.00
46718;BME280;32448;44.960;-0.698;2023-04-25T07:37:49;101401.66;;;12.21;100.00
46718;BME280;32448;44.960;-0.698;2023-04-25T07:40:18;101408.72;;;12.24;100.00
46718;BME280;32448;44.960;-0.698;2023-04-25T07:42:52;101404.41;;;12.26;100.00
46718;BME280;32448;44.960;-0.698;2023-04-25T07:45:45;101401.72;;;12.23;100.00
46718;BME280;32448;44.960;-0.698;2023-04-25T07:48:17;101403.50;;;12.25;100.00
46718;BME280;32448;44.960;-0.698;2023-04-25T07:50:50;101404.44;;;12.29;100.00
46718;BME280;32448;44.960;-0.698;2023-04-25T07:53:18;101407.91;;;12.28;100.00
46718;BME280;32448;44.960;-0.698;2023-04-25T07:55:51;101412.38;;;12.32;100.00
46718;BME280;32448;44.960;-0.698;2023-04-25T07:58:19;101396.75;;;12.38;100.00
46718;BME280;32448;44.960;-0.698;2023-04-25T08:00:59;101404.78;;;12.46;100.00
46718;BME280;32448;44.960;-0.698;2023-04-25T08:03:46;101402.13;;;12.44;100.00
46718;BME280;32448;44.960;-0.698;2023-04-25T08:06:20;101410.06;;;12.47;100.00
46718;BME280;32448;44.960;-0.698;2023-04-25T08:09:16;101400.53;;;12.52;100.00
46718;BME280;32448;44.960;-0.698;2023-04-25T08:11:44;101401.31;;;12.48;100.00
46718;BME280;32448;44.960;-0.698;2023-04-25T08:14:14;101397.00;;;12.50;100.00
46718;BME280;32448;44.960;-0.698;2023-04-25T08:16:43;101403.19;;;12.54;100.00
46718;BME280;32448;44.960;-0.698;2023-04-25T08:19:10;101401.47;;;12.56;100.00
46718;BME280;32448;44.960;-0.698;2023-04-25T08:21:37;101408.56;;;12.61;100.00
46718;BME280;32448;44.960;-0.698;2023-04-25T08:24:09;101406.91;;;12.65;100.00
46718;BME280;32448;44.960;-0.698;2023-04-25T08:26:38;101413.91;;;12.66;100.00
46718;BME280;32448;44.960;-0.698;2023-04-25T08:29:08;101408.78;;;12.73;100.00
46718;BME280;32448;44.960;-0.698;2023-04-25T08:31:38;101420.16;;;12.74;100.00
46718;BME280;32448;44.960;-0.698;2023-04-25T08:34:06;101412.41;;;12.79;100.00
46718;BME280;32448;44.960;-0.698;2023-04-25T08:36:39;101415.91;;;12.79;100.00
46718;BME280;32448;44.960;-0.698;2023-04-25T08:39:32;101416.81;;;12.81;100.00
46718;BME280;32448;44.960;-0.698;2023-04-25T08:42:16;101421.31;;;12.88;100.00
46718;BME280;32448;44.960;-0.698;2023-04-25T08:44:45;101424.00;;;12.93;100.00
46718;BME280;32448;44.960;-0.698;2023-04-25T08:47:12;101417.00;;;12.93;100.00
46718;BME280;32448;44.960;-0.698;2023-04-25T08:49:45;101436.56;;;13.09;100.00
46718;BME280;32448;44.960;-0.698;2023-04-25T08:52:15;101432.22;;;13.11;100.00
46718;BME280;32448;44.960;-0.698;2023-04-25T08:54:48;101438.50;;;13.19;100.00
46718;BME280;32448;44.960;-0.698;2023-04-25T08:57:17;101438.53;;;13.21;100.00
46718;BME280;32448;44.960;-0.698;2023-04-25T08:59:46;101437.84;;;13.32;100.00
46718;BME280;32448;44.960;-0.698;2023-04-25T09:02:14;101435.47;;;13.49;100.00
46718;BME280;32448;44.960;-0.698;2023-04-25T09:04:46;101437.38;;;13.56;100.00
46718;BME280;32448;44.960;-0.698;2023-04-25T09:07:14;101426.91;;;13.61;100.00
46718;BME280;32448;44.960;-0.698;2023-04-25T09:09:45;101415.34;;;13.49;100.00
46718;BME280;32448;44.960;-0.698;2023-04-25T09:12:17;101421.53;;;13.52;100.00
46718;BME280;32448;44.960;-0.698;2023-04-25T09:15:00;101428.81;;;13.69;100.00
46718;BME280;32448;44.960;-0.698;2023-04-25T09:17:43;101439.47;;;13.80;100.00
46718;BME280;32448;44.960;-0.698;2023-04-25T09:20:12;101447.28;;;13.75;100.00
46718;BME280;32448;44.960;-0.698;2023-04-25T09:22:40;101437.84;;;13.90;100.00
46718;BME280;32448;44.960;-0.698;2023-04-25T09:25:11;101440.66;;;14.03;100.00
46718;BME280;32448;44.960;-0.698;2023-04-25T09:27:50;101436.25;;;14.01;100.00
46718;BME280;32448;44.960;-0.698;2023-04-25T09:30:31;101437.16;;;14.01;100.00
46718;BME280;32448;44.960;-0.698;2023-04-25T09:33:07;101437.16;;;14.04;100.00
46718;BME280;32448;44.960;-0.698;2023-04-25T09:35:36;101441.56;;;14.05;100.00
46718;BME280;32448;44.960;-0.698;2023-04-25T09:38:10;101440.75;;;14.09;100.00
46718;BME280;32448;44.960;-0.698;2023-04-25T09:40:56;101442.63;;;14.18;100.00
46718;BME280;32448;44.960;-0.698;2023-04-25T09:43:36;101444.53;;;14.31;100.00
46718;BME280;32448;44.960;-0.698;2023-04-25T09:46:10;101448.09;;;14.36;100.00
46718;BME280;32448;44.960;-0.698;2023-04-25T09:48:43;101448.88;;;14.28;100.00
46718;BME280;32448;44.960;-0.698;2023-04-25T09:51:16;101452.50;;;14.36;100.00
46718;BME280;32448;44.960;-0.698;2023-04-25T09:53:46;101452.50;;;14.37;100.00
46718;BME280;32448;44.960;-0.698;2023-04-25T09:56:23;101461.25;;;14.36;100.00
46718;BME280;32448;44.960;-0.698;2023-04-25T09:58:51;101458.72;;;14.41;100.00
46718;BME280;32448;44.960;-0.698;2023-04-25T10:01:21;101451.63;;;14.35;100.00
46718;BME280;32448;44.960;-0.698;2023-04-25T10:04:02;101458.59;;;14.36;100.00
46718;BME280;32448;44.960;-0.698;2023-04-25T10:06:45;101463.03;;;14.36;100.00
46718;BME280;32448;44.960;-0.698;2023-04-25T10:09:14;101468.38;;;14.42;100.00
46718;BME280;32448;44.960;-0.698;2023-04-25T10:11:42;101466.38;;;14.27;100.00
46718;BME280;32448;44.960;-0.698;2023-04-25T10:14:09;101463.13;;;14.42;100.00
46718;BME280;32448;44.960;-0.698;2023-04-25T10:16:37;101468.44;;;14.46;100.00
46718;BME280;32448;44.960;-0.698;2023-04-25T10:19:05;101458.63;;;14.35;100.00
46718;BME280;32448;44.960;-0.698;2023-04-25T10:21:32;101463.78;;;14.29;100.00
46718;BME280;32448;44.960;-0.698;2023-04-25T10:24:00;101459.28;;;14.18;100.00
46718;BME280;32448;44.960;-0.698;2023-04-25T10:26:27;101460.22;;;14.24;100.00
46718;BME280;32448;44.960;-0.698;2023-04-25T10:29:00;101469.84;;;14.21;100.00
46718;BME280;32448;44.960;-0.698;2023-04-25T10:31:31;101468.91;;;14.18;100.00
46718;BME280;32448;44.960;-0.698;2023-04-25T10:33:59;101462.84;;;14.24;100.00
46718;BME280;32448;44.960;-0.698;2023-04-25T10:36:27;101466.38;;;14.24;100.00
46718;BME280;32448;44.960;-0.698;2023-04-25T10:38:58;101471.06;;;14.45;100.00
46718;BME280;32448;44.960;-0.698;2023-04-25T10:41:47;101472.09;;;14.61;100.00
46718;BME280;32448;44.960;-0.698;2023-04-25T10:44:17;101462.59;;;14.73;100.00
46718;BME280;32448;44.960;-0.698;2023-04-25T10:46:44;101469.72;;;14.83;100.00
46718;BME280;32448;44.960;-0.698;2023-04-25T10:49:15;101465.44;;;14.90;100.00
46718;BME280;32448;44.960;-0.698;2023-04-25T10:52:10;101464.56;;;14.94;100.00
46718;BME280;32448;44.960;-0.698;2023-04-25T10:54:47;101471.47;;;14.81;100.00
46718;BME280;32448;44.960;-0.698;2023-04-25T11:00:01;101468.69;;;14.69;100.00
46718;BME280;32448;44.960;-0.698;2023-04-25T11:02:57;101459.06;;;14.71;100.00
46718;BME280;32448;44.960;-0.698;2023-04-25T11:05:29;101460.91;;;14.78;100.00
46718;BME280;32448;44.960;-0.698;2023-04-25T11:08:00;101448.75;;;14.89;100.00
46718;BME280;32448;44.960;-0.698;2023-04-25T11:10:47;101458.50;;;15.00;100.00
46718;BME280;32448;44.960;-0.698;2023-04-25T11:13:16;101455.94;;;15.07;100.00
46718;BME280;32448;44.960;-0.698;2023-04-25T11:15:51;101446.41;;;15.24;100.00
46718;BME280;32448;44.960;-0.698;2023-04-25T11:18:40;101435.88;;;15.20;100.00
46718;BME280;32448;44.960;-0.698;2023-04-25T11:21:07;101443.88;;;15.37;100.00
46718;BME280;32448;44.960;-0.698;2023-04-25T11:23:34;101446.63;;;15.44;100.00
46718;BME280;32448;44.960;-0.698;2023-04-25T11:26:02;101439.63;;;15.51;100.00
46718;BME280;32448;44.960;-0.698;2023-04-25T11:28:29;101443.22;;;15.59;100.00
46718;BME280;32448;44.960;-0.698;2023-04-25T11:30:57;101436.22;;;15.62;100.00
46718;BME280;32448;44.960;-0.698;2023-04-25T11:33:24;101429.22;;;15.64;100.00
46718;BME280;32448;44.960;-0.698;2023-04-25T11:35:55;101430.97;;;15.62;100.00
46718;BME280;32448;44.960;-0.698;2023-04-25T11:38:23;101428.38;;;15.73;100.00
46718;BME280;32448;44.960;-0.698;2023-04-25T11:40:53;101425.78;;;15.78;100.00
46718;BME280;32448;44.960;-0.698;2023-04-25T11:43:21;101426.75;;;15.93;100.00
46718;BME280;32448;44.960;-0.698;2023-04-25T11:45:49;101422.34;;;15.88;100.00
46718;BME280;32448;44.960;-0.698;2023-04-25T11:48:18;101423.13;;;15.75;100.00
46718;BME280;32448;44.960;-0.698;2023-04-25T11:50:51;101419.63;;;15.74;100.00
46718;BME280;32448;44.960;-0.698;2023-04-25T11:53:18;101421.50;;;15.96;100.00
46718;BME280;32448;44.960;-0.698;2023-04-25T11:55:45;101423.28;;;16.00;100.00
46718;BME280;32448;44.960;-0.698;2023-04-25T11:58:12;101417.16;;;16.06;100.00
46718;BME280;32448;44.960;-0.698;2023-04-25T12:00:41;101397.81;;;16.06;100.00
46718;BME280;32448;44.960;-0.698;2023-04-25T12:03:17;101412.00;;;16.36;100.00
46718;BME280;32448;44.960;-0.698;2023-04-25T12:05:45;101402.31;;;16.32;100.00
46718;BME280;32448;44.960;-0.698;2023-04-25T12:08:13;101406.72;;;16.38;100.00
46718;BME280;32448;44.960;-0.698;2023-04-25T12:10:42;101394.47;;;16.58;100.00
46718;BME280;32448;44.960;-0.698;2023-04-25T12:13:25;101400.69;;;16.74;100.00
46718;BME280;32448;44.960;-0.698;2023-04-25T12:15:54;101397.19;;;16.80;100.00
46718;BME280;32448;44.960;-0.698;2023-04-25T12:18:23;101386.59;;;16.63;100.00
46718;BME280;32448;44.960;-0.698;2023-04-25T12:20:52;101395.41;;;16.71;100.00
46718;BME280;32448;44.960;-0.698;2023-04-25T12:23:25;101391.84;;;16.61;100.00
46718;BME280;32448;44.960;-0.698;2023-04-25T12:25:52;101400.69;;;16.68;100.00
46718;BME280;32448;44.960;-0.698;2023-04-25T12:28:20;101384.78;;;16.59;100.00
46718;BME280;32448;44.960;-0.698;2023-04-25T12:31:06;101405.00;;;16.49;100.00
46718;BME280;32448;44.960;-0.698;2023-04-25T12:33:34;101384.75;;;16.41;100.00
46718;BME280;32448;44.960;-0.698;2023-04-25T12:36:02;101385.63;;;16.38;100.00
46718;BME280;32448;44.960;-0.698;2023-04-25T12:38:46;101373.25;;;16.20;100.00
46718;BME280;32448;44.960;-0.698;2023-04-25T12:41:22;101375.94;;;16.32;100.00
46718;BME280;32448;44.960;-0.698;2023-04-25T12:43:49;101382.09;;;16.37;100.00
46718;BME280;32448;44.960;-0.698;2023-04-25T12:46:16;101391.78;;;16.37;100.00
46718;BME280;32448;44.960;-0.698;2023-04-25T12:48:44;101389.09;;;16.20;100.00
46718;BME280;32448;44.960;-0.698;2023-04-25T12:51:11;101397.00;;;16.25;100.00
46718;BME280;32448;44.960;-0.698;2023-04-25T12:53:38;101399.69;;;16.31;100.00
46718;BME280;32448;44.960;-0.698;2023-04-25T12:56:07;101395.25;;;16.27;100.00
46718;BME280;32448;44.960;-0.698;2023-04-25T12:58:35;101398.78;;;16.21;100.00